首页
METAR-TAF:

METAR-TAF

机场 :

納希切萬, 阿塞拜疆

纬度: 39-11-19N, 经度: 045-27-30E, 海拔: 873米

当前天气观测

该预报发布于33分钟前的09:00 UTC
风速4节,风向东南
温度 31°C
湿度 15%
气压 1011 hPa
能见度10公里或以上

METAR: UBBN 010900Z 14004KT 9999 NSC 31/01 Q1011 R14R/CLRD// NOSIG RMK MT OP QFE684

时间: 13:33 (09:33 UTC)

预报

该预报发布于4小时和31分钟前的05:02 UTC
预报有效从01日的 06点(UTC)到 02日的 06点(UTC)
风速4节,风向多变
能见度10公里或以上
少量云层高于5000英尺
短暂存在
从 01日的 06点(UTC)到 01日的 14点(UTC)
风速12节,风向西转西南
短暂存在
从 01日的 14点(UTC)到 02日的 02点(UTC)
风速10节,风向东北

TAF: UBBN 010502Z 0106/0206 VRB04KT 9999 FEW050 TX34/0112Z TN15/0202Z TEMPO 0106/0114 25012KT TEMPO 0114/0202 04010KT

超过4000个机场的气象观测和天气预报(METAR&TAF报告)。

可查询的气象台以黄色和红色小点在地图上表示。

将鼠标移到小点上方,可查看气象台名称。

然后点击查看天气观测和预报。

如需切换地图:点击带黑十字的绿色按钮放大地图;点击带横线的绿色按钮缩小地图;或者点击绿色箭头查看邻近地区的地图。


METAR-TAF: